createdAt,value
2019-04-14T00:03:33.290Z,29.5
2019-04-14T00:08:56.494Z,29.4
2019-04-14T00:14:18.733Z,28.299999
2019-04-14T00:19:41.469Z,28.4
2019-04-14T00:25:04.829Z,29.200001
2019-04-14T00:30:27.485Z,27.299999
2019-04-14T00:35:50.254Z,26.700001
2019-04-14T00:41:13.686Z,28.9
2019-04-14T00:46:36.735Z,26.700001
2019-04-14T00:51:59.482Z,25.700001
2019-04-14T00:57:22.407Z,27
2019-04-14T01:02:45.207Z,27.700001
2019-04-14T01:08:07.977Z,28
2019-04-14T01:13:31.082Z,26.1
2019-04-14T01:18:53.766Z,25.9
2019-04-14T01:24:16.413Z,25.799999
2019-04-14T01:29:39.036Z,26.200001
2019-04-14T01:35:01.700Z,25.700001
2019-04-14T01:40:24.883Z,25.6
2019-04-14T01:45:59.348Z,26
2019-04-14T01:51:11.281Z,27.799999
2019-04-14T01:56:34.111Z,27.9
2019-04-14T02:01:56.499Z,27.9
2019-04-14T02:07:19.104Z,27.6
2019-04-14T02:12:43.104Z,28.5
2019-04-14T02:18:05.668Z,30.200001
2019-04-14T02:23:28.234Z,30.299999
2019-04-14T02:28:51.014Z,28
2019-04-14T02:34:47.478Z,24.5
2019-04-14T02:40:07.467Z,26.9
2019-04-14T02:45:34.640Z,27.700001
2019-04-14T02:50:55.020Z,30.1
2019-04-14T02:56:27.652Z,27.299999
2019-04-14T03:01:50.492Z,30
2019-04-14T03:07:04.517Z,28
2019-04-14T03:12:37.684Z,30.299999
2019-04-14T03:17:59.931Z,23.4
2019-04-14T03:23:16.888Z,28.6
2019-04-14T03:28:37.636Z,31.4
2019-04-14T03:34:20.782Z,30.799999
2019-04-14T03:39:30.853Z,29.5
2019-04-14T03:44:48.427Z,31.5
2019-04-14T03:50:13.321Z,33.400002
2019-04-14T03:55:24.757Z,29.4
2019-04-14T04:00:36.317Z,31.700001
2019-04-14T04:06:00.759Z,32.099998
2019-04-14T04:11:23.739Z,32.5
2019-04-14T04:16:46.229Z,32.299999
2019-04-14T04:22:08.823Z,32.599998
2019-04-14T04:27:33.024Z,32.799999
2019-04-14T04:32:55.877Z,31.799999
2019-04-14T04:38:18.490Z,32.299999
2019-04-14T04:43:41.161Z,32.700001
2019-04-14T04:49:11.407Z,31.6
2019-04-14T04:54:30.076Z,32.799999
2019-04-14T04:59:52.016Z,31
2019-04-14T05:05:14.691Z,34.299999
2019-04-14T05:10:37.378Z,30.9
2019-04-14T05:16:02.192Z,32.299999
2019-04-14T05:21:25.570Z,34.900002
2019-04-14T05:26:48.465Z,31.200001
2019-04-14T05:32:13.000Z,30.9
2019-04-14T05:37:35.739Z,27.6
2019-04-14T05:42:58.807Z,28.700001
2019-04-14T05:48:22.754Z,25.4
2019-04-14T05:53:44.119Z,24.5
2019-04-14T05:59:06.872Z,27
2019-04-14T06:04:30.913Z,27.5
2019-04-14T06:09:53.823Z,29.1
2019-04-14T06:15:16.755Z,26.5
2019-04-14T06:20:39.780Z,24.6
2019-04-14T06:26:02.732Z,19.299999
2019-04-14T06:31:29.104Z,22.200001
2019-04-14T06:36:51.813Z,23.200001
2019-04-14T06:42:14.583Z,20.4
2019-04-14T06:47:37.773Z,23.200001
2019-04-14T06:53:01.114Z,22.299999
2019-04-14T06:58:23.940Z,23.1
2019-04-14T07:03:46.952Z,20.4
2019-04-14T07:09:09.773Z,20.1
2019-04-14T07:14:32.445Z,20.299999
2019-04-14T07:20:01.643Z,19.200001
2019-04-14T07:25:19.404Z,19.299999
2019-04-14T07:30:42.483Z,19.9
2019-04-14T07:36:05.242Z,17.4
2019-04-14T07:41:27.918Z,15.7
2019-04-14T07:46:50.663Z,15.9
2019-04-14T07:52:13.373Z,16.1
2019-04-14T07:57:36.197Z,13.8
2019-04-14T08:03:01.018Z,16.6
2019-04-14T08:08:23.765Z,14.4
2019-04-14T08:13:46.491Z,15.3
2019-04-14T08:19:09.306Z,15
2019-04-14T08:24:31.957Z,16
2019-04-14T08:29:54.773Z,14.9
2019-04-14T08:35:17.703Z,14.6
2019-04-14T08:40:40.479Z,14.9
2019-04-14T08:46:03.155Z,14.5
2019-04-14T08:51:25.826Z,14.3
2019-04-14T08:56:49.223Z,14.1
2019-04-14T09:02:11.868Z,14.5
2019-04-14T09:07:34.598Z,15
2019-04-14T09:12:57.410Z,15.5
2019-04-14T09:18:21.235Z,14.9
2019-04-14T09:23:43.962Z,15.4
2019-04-14T09:29:07.694Z,15.5
2019-04-14T09:34:31.450Z,12.9
2019-04-14T09:39:54.308Z,15.7
2019-04-14T09:45:16.974Z,13.5
2019-04-14T09:50:39.756Z,13.8
2019-04-14T09:56:02.383Z,13.2
2019-04-14T10:01:25.254Z,15.1
2019-04-14T10:06:47.979Z,16.4
2019-04-14T10:12:10.665Z,16.799999
2019-04-14T10:17:33.420Z,13.1
2019-04-14T10:22:56.074Z,14.3
2019-04-14T10:28:18.833Z,14.5
2019-04-14T10:33:41.602Z,15.9
2019-04-14T10:39:04.247Z,14.7
2019-04-14T10:44:26.912Z,16.1
2019-04-14T10:49:49.581Z,16
2019-04-14T10:55:12.368Z,16.1
2019-04-14T11:00:35.490Z,16.5
2019-04-14T11:05:58.151Z,16.1
2019-04-14T11:11:20.904Z,15.5
2019-04-14T11:16:43.567Z,15.1
2019-04-14T11:22:06.275Z,14.5
2019-04-14T11:27:29.003Z,15.7
2019-04-14T11:32:51.682Z,14.6
2019-04-14T11:38:14.416Z,15.8
2019-04-14T11:43:37.070Z,14.2
2019-04-14T11:48:59.816Z,14.1
2019-04-14T11:54:22.876Z,15.9
2019-04-14T11:59:45.615Z,16
2019-04-14T12:05:08.296Z,14.2
2019-04-14T12:10:30.988Z,16
2019-04-14T12:15:54.596Z,14.3
2019-04-14T12:21:17.338Z,16.299999
2019-04-14T12:26:40.437Z,14.9
2019-04-14T12:32:03.914Z,16.700001
2019-04-14T12:37:26.806Z,15.3
2019-04-14T12:42:50.058Z,16
2019-04-14T12:48:12.756Z,14.7
2019-04-14T12:53:35.470Z,17.4
2019-04-14T12:58:58.165Z,16.799999
2019-04-14T13:04:20.838Z,16.9
2019-04-14T13:09:43.534Z,14.5
2019-04-14T13:15:06.232Z,15
2019-04-14T13:20:29.546Z,14.9
2019-04-14T13:25:52.205Z,15.8
2019-04-14T13:31:14.885Z,17.299999
2019-04-14T13:36:37.590Z,14.8
2019-04-14T13:42:00.292Z,17.200001
2019-04-14T13:47:23.594Z,15
2019-04-14T13:52:47.361Z,14.7
2019-04-14T13:58:08.980Z,16.200001
2019-04-14T14:03:31.613Z,14.3
2019-04-14T14:08:54.268Z,15.5
2019-04-14T14:14:16.928Z,13.8
2019-04-14T14:19:40.374Z,12.6
2019-04-14T14:25:03.004Z,14.4
2019-04-14T14:30:25.710Z,14
2019-04-14T14:35:48.383Z,12.7
2019-04-14T14:41:11.084Z,14.4
2019-04-14T14:46:37.001Z,12.7
2019-04-14T14:51:59.239Z,12.7
2019-04-14T14:57:21.957Z,11.9
2019-04-14T15:02:45.589Z,12.9
2019-04-14T15:08:08.342Z,13.1
2019-04-14T15:13:31.730Z,13
2019-04-14T15:18:54.438Z,13.5
2019-04-14T15:24:17.491Z,13.3
2019-04-14T15:29:40.190Z,13.3
2019-04-14T15:35:02.964Z,14.8
2019-04-14T15:40:25.725Z,12.4
2019-04-14T15:45:48.423Z,13.4
2019-04-14T15:51:11.134Z,13.6
2019-04-14T15:56:33.908Z,13.4
2019-04-14T16:01:56.677Z,14.7
2019-04-14T16:07:19.458Z,12.5
2019-04-14T16:12:42.129Z,13.5
2019-04-14T16:18:05.866Z,12.2
2019-04-14T16:23:28.549Z,13.4
2019-04-14T16:28:51.245Z,10.7
2019-04-14T16:34:13.902Z,10.6
2019-04-14T16:39:36.582Z,10.4
2019-04-14T16:45:00.196Z,9.7
2019-04-14T16:50:24.047Z,9.8
2019-04-14T16:55:46.685Z,9.7
2019-04-14T17:01:09.303Z,10.2
2019-04-14T17:06:32.010Z,10.2
2019-04-14T17:11:55.479Z,9.1
2019-04-14T17:17:19.072Z,9.8
2019-04-14T17:22:41.752Z,9.2
2019-04-14T17:28:04.395Z,8.9
2019-04-14T17:33:27.917Z,9.1
2019-04-14T17:38:50.522Z,8
2019-04-14T17:44:14.172Z,9.7
2019-04-14T17:49:36.828Z,8.7
2019-04-14T17:54:59.490Z,9.2
2019-04-14T18:00:23.927Z,8.9
2019-04-14T18:05:46.687Z,8.9
2019-04-14T18:11:09.325Z,9.7
2019-04-14T18:16:32.114Z,9.7
2019-04-14T18:21:54.840Z,12.5
2019-04-14T18:27:17.566Z,9.6
2019-04-14T18:32:42.065Z,8.9
2019-04-14T18:38:04.688Z,9.9
2019-04-14T18:43:27.463Z,9.2
2019-04-14T18:48:50.229Z,9.2
2019-04-14T18:54:13.924Z,8.8
2019-04-14T18:59:36.712Z,8.8
2019-04-14T19:04:59.570Z,8.5
2019-04-14T19:10:22.282Z,9
2019-04-14T19:15:48.503Z,9.5
2019-04-14T19:21:11.331Z,10
2019-04-14T19:26:34.626Z,10.4
2019-04-14T19:31:57.354Z,10.3
2019-04-14T19:37:20.192Z,11.6
2019-04-14T19:42:43.673Z,11.4
2019-04-14T19:48:06.439Z,12.4
2019-04-14T19:53:29.167Z,12.3
2019-04-14T19:58:51.907Z,13.1
2019-04-14T20:04:14.604Z,14.4
2019-04-14T20:09:38.808Z,15
2019-04-14T20:15:01.927Z,16.200001
2019-04-14T20:20:24.708Z,17.799999
2019-04-14T20:25:47.423Z,18.4
2019-04-14T20:31:10.179Z,17.700001
2019-04-14T20:36:32.917Z,18.6
2019-04-14T20:41:55.688Z,17.299999
2019-04-14T20:47:18.465Z,21.200001
2019-04-14T20:52:41.223Z,18.799999
2019-04-14T20:58:03.929Z,19.6
2019-04-14T21:03:26.648Z,18.700001
2019-04-14T21:08:49.412Z,19.299999
2019-04-14T21:14:12.087Z,20
2019-04-14T21:19:34.845Z,21.5
2019-04-14T21:24:57.604Z,20.4
2019-04-14T21:30:20.285Z,20.9
2019-04-14T21:35:43.731Z,21.299999
2019-04-14T21:41:06.417Z,22.700001
2019-04-14T21:46:31.056Z,20.9
2019-04-14T21:51:53.551Z,24.1
2019-04-14T21:57:17.298Z,22.6
2019-04-14T22:02:40.045Z,23.1
2019-04-14T22:08:02.823Z,23.1
2019-04-14T22:13:25.505Z,24
2019-04-14T22:18:48.203Z,24.6
2019-04-14T22:24:10.903Z,21.799999
2019-04-14T22:29:33.606Z,22.799999
2019-04-14T22:34:56.287Z,22.4
2019-04-14T22:40:19.013Z,21.1
2019-04-14T22:45:42.663Z,22.9
2019-04-14T22:51:05.329Z,22.799999
2019-04-14T22:56:38.511Z,24.700001
2019-04-14T23:01:51.770Z,25.200001
2019-04-14T23:07:14.552Z,25.1
2019-04-14T23:12:37.202Z,24.5
2019-04-14T23:17:59.929Z,25.1
2019-04-14T23:23:22.638Z,24.299999
2019-04-14T23:28:46.142Z,26.799999
2019-04-14T23:34:08.860Z,25.799999
2019-04-14T23:39:31.553Z,26.9
2019-04-14T23:44:54.214Z,27.1
2019-04-14T23:50:16.950Z,29.5
2019-04-14T23:55:39.615Z,27.1
